sensor_id;sensor_type;location;lat;lon;timestamp;P1;durP1;ratioP1;P2;durP2;ratioP2
53269;SDS011;39159;45.634;9.420;2023-08-12T00:00:05;9.23;;;6.07;;
53269;SDS011;39159;45.634;9.420;2023-08-12T00:02:37;6.97;;;5.15;;
53269;SDS011;39159;45.634;9.420;2023-08-12T00:05:06;7.82;;;4.93;;
53269;SDS011;39159;45.634;9.420;2023-08-12T00:07:33;6.53;;;5.45;;
53269;SDS011;39159;45.634;9.420;2023-08-12T00:10:02;10.85;;;5.32;;
53269;SDS011;39159;45.634;9.420;2023-08-12T00:12:29;8.90;;;5.40;;
53269;SDS011;39159;45.634;9.420;2023-08-12T00:14:56;7.03;;;5.30;;
53269;SDS011;39159;45.634;9.420;2023-08-12T00:17:22;6.97;;;5.47;;
53269;SDS011;39159;45.634;9.420;2023-08-12T00:19:47;6.80;;;5.68;;
53269;SDS011;39159;45.634;9.420;2023-08-12T00:22:13;7.55;;;5.70;;
53269;SDS011;39159;45.634;9.420;2023-08-12T00:24:38;10.25;;;5.68;;
53269;SDS011;39159;45.634;9.420;2023-08-12T00:27:05;8.20;;;5.50;;
53269;SDS011;39159;45.634;9.420;2023-08-12T00:29:31;8.77;;;5.53;;
53269;SDS011;39159;45.634;9.420;2023-08-12T00:31:57;7.22;;;5.22;;
53269;SDS011;39159;45.634;9.420;2023-08-12T00:34:23;8.18;;;5.20;;
53269;SDS011;39159;45.634;9.420;2023-08-12T00:36:49;5.68;;;4.93;;
53269;SDS011;39159;45.634;9.420;2023-08-12T00:39:14;7.30;;;5.50;;
53269;SDS011;39159;45.634;9.420;2023-08-12T00:41:40;5.93;;;5.30;;
53269;SDS011;39159;45.634;9.420;2023-08-12T00:44:06;5.97;;;5.15;;
53269;SDS011;39159;45.634;9.420;2023-08-12T00:46:31;6.10;;;4.60;;
53269;SDS011;39159;45.634;9.420;2023-08-12T00:48:58;7.10;;;5.30;;
53269;SDS011;39159;45.634;9.420;2023-08-12T00:51:23;5.82;;;4.90;;
53269;SDS011;39159;45.634;9.420;2023-08-12T00:53:49;8.55;;;5.15;;
53269;SDS011;39159;45.634;9.420;2023-08-12T00:56:16;8.35;;;5.68;;
53269;SDS011;39159;45.634;9.420;2023-08-12T00:58:42;7.82;;;4.90;;
53269;SDS011;39159;45.634;9.420;2023-08-12T01:01:08;9.13;;;5.75;;
53269;SDS011;39159;45.634;9.420;2023-08-12T01:03:34;11.23;;;5.00;;
53269;SDS011;39159;45.634;9.420;2023-08-12T01:05:59;8.20;;;5.10;;
53269;SDS011;39159;45.634;9.420;2023-08-12T01:08:28;5.43;;;4.93;;
53269;SDS011;39159;45.634;9.420;2023-08-12T01:13:46;5.65;;;5.15;;
53269;SDS011;39159;45.634;9.420;2023-08-12T01:16:22;7.43;;;5.32;;
53269;SDS011;39159;45.634;9.420;2023-08-12T01:18:50;6.25;;;4.97;;
53269;SDS011;39159;45.634;9.420;2023-08-12T01:21:16;8.23;;;4.95;;
53269;SDS011;39159;45.634;9.420;2023-08-12T01:23:42;5.05;;;4.55;;
53269;SDS011;39159;45.634;9.420;2023-08-12T01:26:09;7.68;;;5.22;;
53269;SDS011;39159;45.634;9.420;2023-08-12T01:28:35;6.72;;;4.65;;
53269;SDS011;39159;45.634;9.420;2023-08-12T01:31:15;6.47;;;4.78;;
53269;SDS011;39159;45.634;9.420;2023-08-12T01:34:02;9.68;;;4.57;;
53269;SDS011;39159;45.634;9.420;2023-08-12T01:36:46;6.68;;;4.85;;
53269;SDS011;39159;45.634;9.420;2023-08-12T01:39:16;6.80;;;4.50;;
53269;SDS011;39159;45.634;9.420;2023-08-12T01:41:43;4.75;;;4.10;;
53269;SDS011;39159;45.634;9.420;2023-08-12T01:44:09;10.63;;;4.75;;
53269;SDS011;39159;45.634;9.420;2023-08-12T01:46:35;6.80;;;4.72;;
53269;SDS011;39159;45.634;9.420;2023-08-12T01:49:01;6.93;;;4.75;;
53269;SDS011;39159;45.634;9.420;2023-08-12T01:51:26;10.32;;;4.93;;
53269;SDS011;39159;45.634;9.420;2023-08-12T01:53:52;5.13;;;4.35;;
53269;SDS011;39159;45.634;9.420;2023-08-12T01:56:17;6.20;;;4.82;;
53269;SDS011;39159;45.634;9.420;2023-08-12T01:58:43;7.22;;;5.30;;
53269;SDS011;39159;45.634;9.420;2023-08-12T02:01:08;8.70;;;4.40;;
53269;SDS011;39159;45.634;9.420;2023-08-12T02:03:34;7.13;;;5.00;;
53269;SDS011;39159;45.634;9.420;2023-08-12T02:05:59;5.97;;;4.88;;
53269;SDS011;39159;45.634;9.420;2023-08-12T02:08:24;7.32;;;5.05;;
53269;SDS011;39159;45.634;9.420;2023-08-12T02:10:50;9.43;;;5.18;;
53269;SDS011;39159;45.634;9.420;2023-08-12T02:13:15;12.05;;;5.32;;
53269;SDS011;39159;45.634;9.420;2023-08-12T02:15:41;5.43;;;4.47;;
53269;SDS011;39159;45.634;9.420;2023-08-12T02:18:06;8.55;;;4.88;;
53269;SDS011;39159;45.634;9.420;2023-08-12T02:20:32;8.93;;;5.05;;
53269;SDS011;39159;45.634;9.420;2023-08-12T02:22:57;11.93;;;5.32;;
53269;SDS011;39159;45.634;9.420;2023-08-12T02:25:23;5.65;;;4.90;;
53269;SDS011;39159;45.634;9.420;2023-08-12T02:27:48;9.30;;;4.75;;
53269;SDS011;39159;45.634;9.420;2023-08-12T02:30:14;5.88;;;4.30;;
53269;SDS011;39159;45.634;9.420;2023-08-12T02:32:39;6.32;;;4.80;;
53269;SDS011;39159;45.634;9.420;2023-08-12T02:35:08;6.53;;;4.38;;
53269;SDS011;39159;45.634;9.420;2023-08-12T02:37:34;7.38;;;4.78;;
53269;SDS011;39159;45.634;9.420;2023-08-12T02:39:59;5.38;;;4.20;;
53269;SDS011;39159;45.634;9.420;2023-08-12T02:42:25;7.75;;;4.03;;
53269;SDS011;39159;45.634;9.420;2023-08-12T02:44:50;7.55;;;4.43;;
53269;SDS011;39159;45.634;9.420;2023-08-12T02:47:16;4.72;;;4.00;;
53269;SDS011;39159;45.634;9.420;2023-08-12T02:49:41;6.68;;;4.20;;
53269;SDS011;39159;45.634;9.420;2023-08-12T02:52:08;4.93;;;4.28;;
53269;SDS011;39159;45.634;9.420;2023-08-12T02:54:34;5.10;;;4.43;;
53269;SDS011;39159;45.634;9.420;2023-08-12T02:57:00;7.15;;;4.25;;
53269;SDS011;39159;45.634;9.420;2023-08-12T02:59:25;8.23;;;4.43;;
53269;SDS011;39159;45.634;9.420;2023-08-12T03:01:52;7.65;;;4.10;;
53269;SDS011;39159;45.634;9.420;2023-08-12T03:04:17;6.78;;;4.18;;
53269;SDS011;39159;45.634;9.420;2023-08-12T03:06:43;6.20;;;4.13;;
53269;SDS011;39159;45.634;9.420;2023-08-12T03:09:08;4.70;;;3.90;;
53269;SDS011;39159;45.634;9.420;2023-08-12T03:11:33;4.82;;;3.85;;
53269;SDS011;39159;45.634;9.420;2023-08-12T03:13:59;6.28;;;4.35;;
53269;SDS011;39159;45.634;9.420;2023-08-12T03:16:24;4.28;;;3.88;;
53269;SDS011;39159;45.634;9.420;2023-08-12T03:18:50;7.25;;;4.13;;
53269;SDS011;39159;45.634;9.420;2023-08-12T03:21:15;5.95;;;4.50;;
53269;SDS011;39159;45.634;9.420;2023-08-12T03:23:40;5.70;;;4.38;;
53269;SDS011;39159;45.634;9.420;2023-08-12T03:26:06;9.18;;;4.88;;
53269;SDS011;39159;45.634;9.420;2023-08-12T03:28:31;7.28;;;4.80;;
53269;SDS011;39159;45.634;9.420;2023-08-12T03:30:57;7.15;;;4.78;;
53269;SDS011;39159;45.634;9.420;2023-08-12T03:33:22;5.63;;;5.13;;
53269;SDS011;39159;45.634;9.420;2023-08-12T03:35:48;5.68;;;4.72;;
53269;SDS011;39159;45.634;9.420;2023-08-12T03:38:14;7.25;;;5.15;;
53269;SDS011;39159;45.634;9.420;2023-08-12T03:40:40;8.13;;;5.70;;
53269;SDS011;39159;45.634;9.420;2023-08-12T03:43:06;7.43;;;4.93;;
53269;SDS011;39159;45.634;9.420;2023-08-12T03:45:32;8.05;;;5.15;;
53269;SDS011;39159;45.634;9.420;2023-08-12T03:48:04;11.27;;;6.15;;
53269;SDS011;39159;45.634;9.420;2023-08-12T03:50:32;12.05;;;6.30;;
53269;SDS011;39159;45.634;9.420;2023-08-12T03:52:58;8.75;;;5.60;;
53269;SDS011;39159;45.634;9.420;2023-08-12T03:55:24;9.38;;;5.97;;
53269;SDS011;39159;45.634;9.420;2023-08-12T03:57:49;10.32;;;5.80;;
53269;SDS011;39159;45.634;9.420;2023-08-12T04:00:15;8.57;;;6.35;;
53269;SDS011;39159;45.634;9.420;2023-08-12T04:02:41;6.90;;;5.82;;
53269;SDS011;39159;45.634;9.420;2023-08-12T04:05:08;6.78;;;5.70;;
53269;SDS011;39159;45.634;9.420;2023-08-12T04:07:35;9.05;;;5.95;;
53269;SDS011;39159;45.634;9.420;2023-08-12T04:10:01;6.97;;;6.28;;
53269;SDS011;39159;45.634;9.420;2023-08-12T04:12:27;10.50;;;6.40;;
53269;SDS011;39159;45.634;9.420;2023-08-12T04:14:52;12.57;;;6.28;;
53269;SDS011;39159;45.634;9.420;2023-08-12T04:17:18;11.95;;;6.22;;
53269;SDS011;39159;45.634;9.420;2023-08-12T04:19:43;9.55;;;6.95;;
53269;SDS011;39159;45.634;9.420;2023-08-12T04:22:09;11.52;;;6.95;;
53269;SDS011;39159;45.634;9.420;2023-08-12T04:24:34;8.65;;;6.55;;
53269;SDS011;39159;45.634;9.420;2023-08-12T04:27:00;9.25;;;6.60;;
53269;SDS011;39159;45.634;9.420;2023-08-12T04:29:25;7.97;;;6.75;;
53269;SDS011;39159;45.634;9.420;2023-08-12T04:31:50;8.20;;;6.82;;
53269;SDS011;39159;45.634;9.420;2023-08-12T04:34:17;9.27;;;6.47;;
53269;SDS011;39159;45.634;9.420;2023-08-12T04:36:43;9.48;;;6.60;;
53269;SDS011;39159;45.634;9.420;2023-08-12T04:39:08;7.72;;;6.70;;
53269;SDS011;39159;45.634;9.420;2023-08-12T04:41:35;7.22;;;5.90;;
53269;SDS011;39159;45.634;9.420;2023-08-12T04:44:00;9.73;;;6.90;;
53269;SDS011;39159;45.634;9.420;2023-08-12T04:46:26;9.98;;;5.95;;
53269;SDS011;39159;45.634;9.420;2023-08-12T04:48:51;8.57;;;6.03;;
53269;SDS011;39159;45.634;9.420;2023-08-12T04:51:17;8.85;;;6.25;;
53269;SDS011;39159;45.634;9.420;2023-08-12T04:53:42;6.68;;;5.78;;
53269;SDS011;39159;45.634;9.420;2023-08-12T04:56:08;6.97;;;6.28;;
53269;SDS011;39159;45.634;9.420;2023-08-12T04:58:33;10.10;;;6.15;;
53269;SDS011;39159;45.634;9.420;2023-08-12T05:01:00;6.15;;;5.43;;
53269;SDS011;39159;45.634;9.420;2023-08-12T05:03:25;8.23;;;5.65;;
53269;SDS011;39159;45.634;9.420;2023-08-12T05:05:51;7.88;;;6.22;;
53269;SDS011;39159;45.634;9.420;2023-08-12T05:08:18;9.57;;;6.03;;
53269;SDS011;39159;45.634;9.420;2023-08-12T05:10:43;7.38;;;6.30;;
53269;SDS011;39159;45.634;9.420;2023-08-12T05:13:09;8.05;;;6.35;;
53269;SDS011;39159;45.634;9.420;2023-08-12T05:15:34;7.63;;;5.88;;
53269;SDS011;39159;45.634;9.420;2023-08-12T05:18:01;10.93;;;6.25;;
53269;SDS011;39159;45.634;9.420;2023-08-12T05:20:27;7.65;;;6.90;;
53269;SDS011;39159;45.634;9.420;2023-08-12T05:22:53;9.13;;;6.68;;
53269;SDS011;39159;45.634;9.420;2023-08-12T05:25:18;12.70;;;6.45;;
53269;SDS011;39159;45.634;9.420;2023-08-12T05:27:44;8.60;;;6.32;;
53269;SDS011;39159;45.634;9.420;2023-08-12T05:30:09;11.63;;;6.15;;
53269;SDS011;39159;45.634;9.420;2023-08-12T05:32:35;7.65;;;6.63;;
53269;SDS011;39159;45.634;9.420;2023-08-12T05:35:01;7.60;;;6.18;;
53269;SDS011;39159;45.634;9.420;2023-08-12T05:37:26;8.38;;;6.45;;
53269;SDS011;39159;45.634;9.420;2023-08-12T05:39:51;6.97;;;5.72;;
53269;SDS011;39159;45.634;9.420;2023-08-12T05:42:17;8.90;;;5.90;;
53269;SDS011;39159;45.634;9.420;2023-08-12T05:44:42;8.38;;;6.00;;
53269;SDS011;39159;45.634;9.420;2023-08-12T05:47:08;7.72;;;6.20;;
53269;SDS011;39159;45.634;9.420;2023-08-12T05:49:33;7.75;;;5.80;;
53269;SDS011;39159;45.634;9.420;2023-08-12T05:51:59;6.22;;;5.63;;
53269;SDS011;39159;45.634;9.420;2023-08-12T05:54:24;8.32;;;5.57;;
53269;SDS011;39159;45.634;9.420;2023-08-12T05:56:50;9.43;;;5.53;;
53269;SDS011;39159;45.634;9.420;2023-08-12T05:59:15;7.25;;;5.63;;
53269;SDS011;39159;45.634;9.420;2023-08-12T06:01:41;12.73;;;6.13;;
53269;SDS011;39159;45.634;9.420;2023-08-12T06:04:06;7.65;;;5.60;;
53269;SDS011;39159;45.634;9.420;2023-08-12T06:06:31;5.97;;;5.20;;
53269;SDS011;39159;45.634;9.420;2023-08-12T06:08:57;7.95;;;5.43;;
53269;SDS011;39159;45.634;9.420;2023-08-12T06:11:22;8.13;;;5.60;;
53269;SDS011;39159;45.634;9.420;2023-08-12T06:13:48;9.32;;;5.88;;
53269;SDS011;39159;45.634;9.420;2023-08-12T06:16:13;8.15;;;5.75;;
53269;SDS011;39159;45.634;9.420;2023-08-12T06:18:39;6.65;;;4.80;;
53269;SDS011;39159;45.634;9.420;2023-08-12T06:21:04;8.38;;;5.53;;
53269;SDS011;39159;45.634;9.420;2023-08-12T06:23:30;6.20;;;4.65;;
53269;SDS011;39159;45.634;9.420;2023-08-12T06:25:55;6.47;;;5.18;;
53269;SDS011;39159;45.634;9.420;2023-08-12T06:28:20;5.63;;;4.40;;
53269;SDS011;39159;45.634;9.420;2023-08-12T06:30:46;7.30;;;4.65;;
53269;SDS011;39159;45.634;9.420;2023-08-12T06:33:13;6.60;;;4.70;;
53269;SDS011;39159;45.634;9.420;2023-08-12T06:35:39;5.72;;;4.50;;
53269;SDS011;39159;45.634;9.420;2023-08-12T06:38:05;8.15;;;4.50;;
53269;SDS011;39159;45.634;9.420;2023-08-12T06:40:31;11.35;;;4.60;;
53269;SDS011;39159;45.634;9.420;2023-08-12T06:42:56;6.45;;;4.43;;
53269;SDS011;39159;45.634;9.420;2023-08-12T06:45:21;6.72;;;4.45;;
53269;SDS011;39159;45.634;9.420;2023-08-12T06:47:47;6.95;;;3.80;;
53269;SDS011;39159;45.634;9.420;2023-08-12T06:50:12;5.90;;;4.40;;
53269;SDS011;39159;45.634;9.420;2023-08-12T06:52:38;5.70;;;4.00;;
53269;SDS011;39159;45.634;9.420;2023-08-12T06:55:03;5.90;;;4.03;;
53269;SDS011;39159;45.634;9.420;2023-08-12T06:57:29;7.60;;;4.35;;
53269;SDS011;39159;45.634;9.420;2023-08-12T06:59:54;5.72;;;3.38;;
53269;SDS011;39159;45.634;9.420;2023-08-12T07:02:20;5.70;;;3.83;;
53269;SDS011;39159;45.634;9.420;2023-08-12T07:04:45;6.00;;;3.72;;
53269;SDS011;39159;45.634;9.420;2023-08-12T07:07:11;5.05;;;3.17;;
53269;SDS011;39159;45.634;9.420;2023-08-12T07:09:36;7.00;;;3.55;;
53269;SDS011;39159;45.634;9.420;2023-08-12T07:12:02;6.95;;;2.70;;
53269;SDS011;39159;45.634;9.420;2023-08-12T07:14:28;4.40;;;3.17;;
53269;SDS011;39159;45.634;9.420;2023-08-12T07:16:53;4.45;;;2.85;;
53269;SDS011;39159;45.634;9.420;2023-08-12T07:19:19;3.25;;;2.72;;
53269;SDS011;39159;45.634;9.420;2023-08-12T07:21:44;3.17;;;2.63;;
53269;SDS011;39159;45.634;9.420;2023-08-12T07:24:10;5.28;;;2.67;;
53269;SDS011;39159;45.634;9.420;2023-08-12T07:26:35;3.22;;;2.20;;
53269;SDS011;39159;45.634;9.420;2023-08-12T07:29:00;3.35;;;2.17;;
53269;SDS011;39159;45.634;9.420;2023-08-12T07:31:26;5.45;;;2.35;;
53269;SDS011;39159;45.634;9.420;2023-08-12T07:33:51;6.93;;;2.45;;
53269;SDS011;39159;45.634;9.420;2023-08-12T07:36:17;5.47;;;2.25;;
53269;SDS011;39159;45.634;9.420;2023-08-12T07:38:42;3.28;;;2.05;;
53269;SDS011;39159;45.634;9.420;2023-08-12T07:41:08;4.05;;;2.15;;
53269;SDS011;39159;45.634;9.420;2023-08-12T07:43:33;4.90;;;2.72;;
53269;SDS011;39159;45.634;9.420;2023-08-12T07:45:59;4.25;;;2.22;;
53269;SDS011;39159;45.634;9.420;2023-08-12T07:48:24;6.47;;;2.67;;
53269;SDS011;39159;45.634;9.420;2023-08-12T07:50:56;2.58;;;2.13;;
53269;SDS011;39159;45.634;9.420;2023-08-12T07:53:22;3.97;;;2.28;;
53269;SDS011;39159;45.634;9.420;2023-08-12T07:55:48;8.63;;;2.70;;
53269;SDS011;39159;45.634;9.420;2023-08-12T07:58:14;7.13;;;2.78;;
53269;SDS011;39159;45.634;9.420;2023-08-12T08:00:39;4.53;;;2.40;;
53269;SDS011;39159;45.634;9.420;2023-08-12T08:03:05;3.20;;;2.10;;
53269;SDS011;39159;45.634;9.420;2023-08-12T08:05:30;16.02;;;2.70;;
53269;SDS011;39159;45.634;9.420;2023-08-12T08:07:56;3.28;;;2.28;;
53269;SDS011;39159;45.634;9.420;2023-08-12T08:10:21;3.55;;;2.33;;
53269;SDS011;39159;45.634;9.420;2023-08-12T08:12:47;5.07;;;2.40;;
53269;SDS011;39159;45.634;9.420;2023-08-12T08:15:12;6.72;;;2.45;;
53269;SDS011;39159;45.634;9.420;2023-08-12T08:17:38;3.58;;;2.30;;
53269;SDS011;39159;45.634;9.420;2023-08-12T08:20:03;3.78;;;2.35;;
53269;SDS011;39159;45.634;9.420;2023-08-12T08:22:30;4.20;;;2.60;;
53269;SDS011;39159;45.634;9.420;2023-08-12T08:24:56;3.78;;;2.13;;
53269;SDS011;39159;45.634;9.420;2023-08-12T08:27:22;3.60;;;2.20;;
53269;SDS011;39159;45.634;9.420;2023-08-12T08:29:47;4.30;;;2.22;;
53269;SDS011;39159;45.634;9.420;2023-08-12T08:32:13;2.42;;;2.17;;
53269;SDS011;39159;45.634;9.420;2023-08-12T08:34:38;3.63;;;2.22;;
53269;SDS011;39159;45.634;9.420;2023-08-12T08:37:04;5.93;;;2.45;;
53269;SDS011;39159;45.634;9.420;2023-08-12T08:39:30;5.07;;;2.45;;
53269;SDS011;39159;45.634;9.420;2023-08-12T08:41:56;2.47;;;2.10;;
53269;SDS011;39159;45.634;9.420;2023-08-12T08:44:22;5.93;;;2.28;;
53269;SDS011;39159;45.634;9.420;2023-08-12T08:46:50;2.85;;;2.10;;
53269;SDS011;39159;45.634;9.420;2023-08-12T08:49:18;5.35;;;2.58;;
53269;SDS011;39159;45.634;9.420;2023-08-12T08:51:46;2.17;;;1.98;;
53269;SDS011;39159;45.634;9.420;2023-08-12T08:54:12;2.45;;;2.20;;
53269;SDS011;39159;45.634;9.420;2023-08-12T08:56:38;5.30;;;2.55;;
53269;SDS011;39159;45.634;9.420;2023-08-12T08:59:04;4.07;;;2.47;;
53269;SDS011;39159;45.634;9.420;2023-08-12T09:01:29;5.68;;;2.17;;
53269;SDS011;39159;45.634;9.420;2023-08-12T09:03:57;3.92;;;2.42;;
53269;SDS011;39159;45.634;9.420;2023-08-12T09:06:24;6.82;;;2.75;;
53269;SDS011;39159;45.634;9.420;2023-08-12T09:08:53;2.97;;;2.35;;
53269;SDS011;39159;45.634;9.420;2023-08-12T09:11:19;4.38;;;2.20;;
53269;SDS011;39159;45.634;9.420;2023-08-12T09:13:45;5.45;;;2.25;;
53269;SDS011;39159;45.634;9.420;2023-08-12T09:16:11;4.22;;;2.17;;
53269;SDS011;39159;45.634;9.420;2023-08-12T09:18:37;7.82;;;2.63;;
53269;SDS011;39159;45.634;9.420;2023-08-12T09:21:03;3.75;;;2.08;;
53269;SDS011;39159;45.634;9.420;2023-08-12T09:23:33;8.18;;;2.60;;
53269;SDS011;39159;45.634;9.420;2023-08-12T09:26:13;3.13;;;2.55;;
53269;SDS011;39159;45.634;9.420;2023-08-12T09:28:40;6.43;;;2.50;;
53269;SDS011;39159;45.634;9.420;2023-08-12T09:31:05;4.90;;;2.60;;
53269;SDS011;39159;45.634;9.420;2023-08-12T09:33:32;3.67;;;2.28;;
53269;SDS011;39159;45.634;9.420;2023-08-12T09:35:57;3.47;;;2.10;;
53269;SDS011;39159;45.634;9.420;2023-08-12T09:38:23;5.18;;;1.88;;
53269;SDS011;39159;45.634;9.420;2023-08-12T09:40:48;5.75;;;2.40;;
53269;SDS011;39159;45.634;9.420;2023-08-12T09:43:17;4.72;;;2.50;;
53269;SDS011;39159;45.634;9.420;2023-08-12T09:45:43;2.88;;;2.25;;
53269;SDS011;39159;45.634;9.420;2023-08-12T09:48:10;5.05;;;2.30;;
53269;SDS011;39159;45.634;9.420;2023-08-12T09:50:35;3.47;;;2.45;;
53269;SDS011;39159;45.634;9.420;2023-08-12T09:53:01;2.92;;;2.35;;
53269;SDS011;39159;45.634;9.420;2023-08-12T09:55:28;3.78;;;2.17;;
53269;SDS011;39159;45.634;9.420;2023-08-12T09:57:55;7.63;;;2.75;;
53269;SDS011;39159;45.634;9.420;2023-08-12T10:00:22;4.78;;;2.38;;
53269;SDS011;39159;45.634;9.420;2023-08-12T10:02:49;4.15;;;2.40;;
53269;SDS011;39159;45.634;9.420;2023-08-12T10:05:21;3.58;;;2.47;;
53269;SDS011;39159;45.634;9.420;2023-08-12T10:07:50;4.25;;;2.60;;
53269;SDS011;39159;45.634;9.420;2023-08-12T10:10:17;4.45;;;2.88;;
53269;SDS011;39159;45.634;9.420;2023-08-12T10:12:43;8.48;;;2.60;;
53269;SDS011;39159;45.634;9.420;2023-08-12T10:15:09;4.22;;;2.45;;
53269;SDS011;39159;45.634;9.420;2023-08-12T10:17:35;4.18;;;2.08;;
53269;SDS011;39159;45.634;9.420;2023-08-12T10:20:03;6.50;;;3.05;;
53269;SDS011;39159;45.634;9.420;2023-08-12T10:22:30;3.63;;;2.15;;
53269;SDS011;39159;45.634;9.420;2023-08-12T10:24:59;4.13;;;2.40;;
53269;SDS011;39159;45.634;9.420;2023-08-12T10:27:27;5.22;;;2.78;;
53269;SDS011;39159;45.634;9.420;2023-08-12T10:29:55;3.33;;;2.50;;
53269;SDS011;39159;45.634;9.420;2023-08-12T10:32:22;4.15;;;2.60;;
53269;SDS011;39159;45.634;9.420;2023-08-12T10:34:53;4.38;;;2.40;;
53269;SDS011;39159;45.634;9.420;2023-08-12T10:37:20;6.28;;;2.90;;
53269;SDS011;39159;45.634;9.420;2023-08-12T10:39:48;4.80;;;2.30;;
53269;SDS011;39159;45.634;9.420;2023-08-12T10:42:13;3.45;;;2.10;;
53269;SDS011;39159;45.634;9.420;2023-08-12T10:45:06;2.97;;;2.55;;
53269;SDS011;39159;45.634;9.420;2023-08-12T10:47:32;6.60;;;2.53;;
53269;SDS011;39159;45.634;9.420;2023-08-12T10:49:59;4.75;;;2.42;;
53269;SDS011;39159;45.634;9.420;2023-08-12T10:52:31;4.97;;;2.80;;
53269;SDS011;39159;45.634;9.420;2023-08-12T10:57:46;4.18;;;2.00;;
53269;SDS011;39159;45.634;9.420;2023-08-12T11:00:16;2.88;;;2.25;;
53269;SDS011;39159;45.634;9.420;2023-08-12T11:02:51;4.80;;;2.50;;
53269;SDS011;39159;45.634;9.420;2023-08-12T11:05:18;5.40;;;2.00;;
53269;SDS011;39159;45.634;9.420;2023-08-12T11:10:21;3.00;;;2.45;;
53269;SDS011;39159;45.634;9.420;2023-08-12T11:17:59;5.25;;;2.90;;
53269;SDS011;39159;45.634;9.420;2023-08-12T11:20:35;3.15;;;2.30;;
53269;SDS011;39159;45.634;9.420;2023-08-12T11:23:02;6.10;;;2.30;;
53269;SDS011;39159;45.634;9.420;2023-08-12T11:25:29;6.80;;;2.35;;
53269;SDS011;39159;45.634;9.420;2023-08-12T11:27:55;7.78;;;2.72;;
53269;SDS011;39159;45.634;9.420;2023-08-12T11:30:22;10.90;;;2.63;;
53269;SDS011;39159;45.634;9.420;2023-08-12T11:32:48;3.97;;;2.80;;
53269;SDS011;39159;45.634;9.420;2023-08-12T11:35:16;5.03;;;2.67;;
53269;SDS011;39159;45.634;9.420;2023-08-12T11:37:46;17.92;;;3.42;;
53269;SDS011;39159;45.634;9.420;2023-08-12T11:40:14;6.90;;;2.40;;
53269;SDS011;39159;45.634;9.420;2023-08-12T11:42:42;3.63;;;2.55;;
53269;SDS011;39159;45.634;9.420;2023-08-12T11:45:09;4.05;;;2.53;;
53269;SDS011;39159;45.634;9.420;2023-08-12T11:47:36;4.60;;;2.65;;
53269;SDS011;39159;45.634;9.420;2023-08-12T11:50:03;4.35;;;2.60;;
53269;SDS011;39159;45.634;9.420;2023-08-12T11:52:29;4.13;;;2.60;;
53269;SDS011;39159;45.634;9.420;2023-08-12T11:54:55;4.50;;;2.47;;
53269;SDS011;39159;45.634;9.420;2023-08-12T11:57:22;3.38;;;2.72;;
53269;SDS011;39159;45.634;9.420;2023-08-12T11:59:48;4.28;;;2.60;;
53269;SDS011;39159;45.634;9.420;2023-08-12T12:02:16;5.82;;;2.78;;
53269;SDS011;39159;45.634;9.420;2023-08-12T12:04:42;3.38;;;2.47;;
53269;SDS011;39159;45.634;9.420;2023-08-12T12:07:20;3.25;;;2.40;;
53269;SDS011;39159;45.634;9.420;2023-08-12T12:09:50;4.82;;;2.50;;
53269;SDS011;39159;45.634;9.420;2023-08-12T12:12:17;6.88;;;2.75;;
53269;SDS011;39159;45.634;9.420;2023-08-12T12:14:42;5.07;;;2.47;;
53269;SDS011;39159;45.634;9.420;2023-08-12T12:17:08;3.20;;;2.67;;
53269;SDS011;39159;45.634;9.420;2023-08-12T12:19:35;7.38;;;3.08;;
53269;SDS011;39159;45.634;9.420;2023-08-12T12:22:02;3.58;;;2.85;;
53269;SDS011;39159;45.634;9.420;2023-08-12T12:24:29;4.00;;;2.55;;
53269;SDS011;39159;45.634;9.420;2023-08-12T12:26:55;4.00;;;2.28;;
53269;SDS011;39159;45.634;9.420;2023-08-12T12:29:21;4.28;;;2.22;;
53269;SDS011;39159;45.634;9.420;2023-08-12T12:31:47;36.03;;;4.90;;
53269;SDS011;39159;45.634;9.420;2023-08-12T12:34:13;4.20;;;2.90;;
53269;SDS011;39159;45.634;9.420;2023-08-12T12:36:39;3.33;;;2.40;;
53269;SDS011;39159;45.634;9.420;2023-08-12T12:39:06;6.05;;;2.67;;
53269;SDS011;39159;45.634;9.420;2023-08-12T12:41:32;4.75;;;2.75;;
53269;SDS011;39159;45.634;9.420;2023-08-12T12:44:01;5.38;;;2.75;;
53269;SDS011;39159;45.634;9.420;2023-08-12T12:46:27;3.78;;;2.40;;
53269;SDS011;39159;45.634;9.420;2023-08-12T12:48:53;5.53;;;2.90;;
53269;SDS011;39159;45.634;9.420;2023-08-12T12:51:18;3.47;;;2.67;;
53269;SDS011;39159;45.634;9.420;2023-08-12T12:53:44;3.70;;;2.30;;
53269;SDS011;39159;45.634;9.420;2023-08-12T12:56:09;7.65;;;3.55;;
53269;SDS011;39159;45.634;9.420;2023-08-12T12:58:35;6.55;;;2.95;;
53269;SDS011;39159;45.634;9.420;2023-08-12T13:01:01;4.47;;;3.05;;
53269;SDS011;39159;45.634;9.420;2023-08-12T13:03:28;4.93;;;3.33;;
53269;SDS011;39159;45.634;9.420;2023-08-12T13:05:57;4.85;;;2.53;;
53269;SDS011;39159;45.634;9.420;2023-08-12T13:08:23;3.20;;;2.78;;
53269;SDS011;39159;45.634;9.420;2023-08-12T13:10:49;4.78;;;2.97;;
53269;SDS011;39159;45.634;9.420;2023-08-12T13:13:15;2.92;;;2.63;;
53269;SDS011;39159;45.634;9.420;2023-08-12T13:15:41;4.72;;;2.78;;
53269;SDS011;39159;45.634;9.420;2023-08-12T13:18:07;5.60;;;2.72;;
53269;SDS011;39159;45.634;9.420;2023-08-12T13:20:33;4.75;;;2.40;;
53269;SDS011;39159;45.634;9.420;2023-08-12T13:22:59;4.88;;;3.08;;
53269;SDS011;39159;45.634;9.420;2023-08-12T13:25:25;2.97;;;2.22;;
53269;SDS011;39159;45.634;9.420;2023-08-12T13:27:50;3.05;;;2.63;;
53269;SDS011;39159;45.634;9.420;2023-08-12T13:30:16;5.43;;;3.05;;
53269;SDS011;39159;45.634;9.420;2023-08-12T13:32:41;3.15;;;2.53;;
53269;SDS011;39159;45.634;9.420;2023-08-12T13:35:07;3.20;;;2.60;;
53269;SDS011;39159;45.634;9.420;2023-08-12T13:37:32;4.35;;;3.00;;
53269;SDS011;39159;45.634;9.420;2023-08-12T13:39:58;8.07;;;3.40;;
53269;SDS011;39159;45.634;9.420;2023-08-12T13:42:23;3.85;;;2.45;;
53269;SDS011;39159;45.634;9.420;2023-08-12T13:44:49;3.53;;;2.70;;
53269;SDS011;39159;45.634;9.420;2023-08-12T13:47:14;4.90;;;2.70;;
53269;SDS011;39159;45.634;9.420;2023-08-12T13:49:40;4.13;;;2.97;;
53269;SDS011;39159;45.634;9.420;2023-08-12T13:52:05;4.95;;;3.03;;
53269;SDS011;39159;45.634;9.420;2023-08-12T13:54:31;4.38;;;2.85;;
53269;SDS011;39159;45.634;9.420;2023-08-12T13:56:56;4.50;;;2.90;;
53269;SDS011;39159;45.634;9.420;2023-08-12T13:59:24;6.00;;;2.90;;
53269;SDS011;39159;45.634;9.420;2023-08-12T14:01:49;5.90;;;3.10;;
53269;SDS011;39159;45.634;9.420;2023-08-12T14:04:15;4.53;;;2.63;;
53269;SDS011;39159;45.634;9.420;2023-08-12T14:06:40;5.28;;;3.33;;
53269;SDS011;39159;45.634;9.420;2023-08-12T14:09:06;2.90;;;2.50;;
53269;SDS011;39159;45.634;9.420;2023-08-12T14:11:33;5.32;;;3.25;;
53269;SDS011;39159;45.634;9.420;2023-08-12T14:13:58;3.85;;;3.08;;
53269;SDS011;39159;45.634;9.420;2023-08-12T14:16:24;4.82;;;2.95;;
53269;SDS011;39159;45.634;9.420;2023-08-12T14:18:49;4.50;;;2.78;;
53269;SDS011;39159;45.634;9.420;2023-08-12T14:21:15;3.55;;;2.90;;
53269;SDS011;39159;45.634;9.420;2023-08-12T14:23:40;4.32;;;2.80;;
53269;SDS011;39159;45.634;9.420;2023-08-12T14:26:06;6.07;;;2.97;;
53269;SDS011;39159;45.634;9.420;2023-08-12T14:28:31;6.22;;;3.00;;
53269;SDS011;39159;45.634;9.420;2023-08-12T14:30:56;5.97;;;3.17;;
53269;SDS011;39159;45.634;9.420;2023-08-12T14:33:22;3.67;;;3.17;;
53269;SDS011;39159;45.634;9.420;2023-08-12T14:35:50;3.40;;;2.72;;
53269;SDS011;39159;45.634;9.420;2023-08-12T14:38:16;3.85;;;3.08;;
53269;SDS011;39159;45.634;9.420;2023-08-12T14:40:42;2.90;;;2.60;;
53269;SDS011;39159;45.634;9.420;2023-08-12T14:43:12;4.35;;;2.65;;
53269;SDS011;39159;45.634;9.420;2023-08-12T14:45:38;4.15;;;2.65;;
53269;SDS011;39159;45.634;9.420;2023-08-12T14:48:03;4.88;;;2.80;;
53269;SDS011;39159;45.634;9.420;2023-08-12T14:50:29;6.50;;;3.45;;
53269;SDS011;39159;45.634;9.420;2023-08-12T14:52:55;4.80;;;3.22;;
53269;SDS011;39159;45.634;9.420;2023-08-12T14:55:20;3.90;;;2.88;;